Time;durP1;ratioP1;P1;durP2;ratioP2;P2;SDS_P1;SDS_P2;PMS_P1;PMS_P2;Temp;Humidity;BMP_temperature;BMP_pressure;BME280_temperature;BME280_humidity;BME280_pressure;Samples;Min_cycle;Max_cycle;Signal;HPM_P1;HPM_P2
2023/03/23 00:01:19;;;;;;;29.35;5.25;;;;;;;;;;5075968;28;20044;-70
2023/03/23 00:03:44;;;;;;;27.02;4.32;;;;;;;;;;5092327;28;20411;-70
2023/03/23 00:06:10;;;;;;;30.85;4.72;;;;;;;;;;5074598;28;20048;-70
2023/03/23 00:08:44;;;;;;;34.85;5.32;;;;;;;;;;5092305;28;20497;-70
2023/03/23 00:11:10;;;;;;;23.52;3.90;;;;;;;;;;5080959;28;20605;-70
2023/03/23 00:13:36;;;;;;;25.73;4.63;;;;;;;;;;5092361;28;20115;-70
2023/03/23 00:16:01;;;;;;;29.83;4.78;;;;;;;;;;5070732;28;20092;-70
2023/03/23 00:18:27;;;;;;;28.85;4.53;;;;;;;;;;5091899;28;20043;-70
2023/03/23 00:20:53;;;;;;;27.15;5.05;;;;;;;;;;5079509;28;20082;-69
2023/03/23 00:23:19;;;;;;;30.45;5.03;;;;;;;;;;5092196;28;20048;-70
2023/03/23 00:25:49;;;;;;;24.85;4.22;;;;;;;;;;5067569;28;20068;-69
2023/03/23 00:28:15;;;;;;;32.53;4.88;;;;;;;;;;5091914;28;20080;-70
2023/03/23 00:30:41;;;;;;;30.20;5.45;;;;;;;;;;5077935;28;20513;-69
2023/03/23 00:33:07;;;;;;;29.75;4.38;;;;;;;;;;5091788;28;20412;-69
2023/03/23 00:35:34;;;;;;;24.27;4.40;;;;;;;;;;5066097;28;20044;-69
2023/03/23 00:37:59;;;;;;;29.38;5.30;;;;;;;;;;5087618;28;20058;-69
2023/03/23 00:40:26;;;;;;;28.65;4.95;;;;;;;;;;5068211;28;20052;-69
2023/03/23 00:42:51;;;;;;;31.70;5.13;;;;;;;;;;5084117;28;20042;-69
2023/03/23 00:45:16;;;;;;;29.95;4.93;;;;;;;;;;5089422;28;20487;-69
2023/03/23 00:47:46;;;;;;;23.83;4.72;;;;;;;;;;5091743;28;20047;-69
2023/03/23 00:50:12;;;;;;;32.55;6.47;;;;;;;;;;5088086;28;20115;-70
2023/03/23 00:52:38;;;;;;;24.08;4.63;;;;;;;;;;5091793;28;20044;-70
2023/03/23 00:55:03;;;;;;;30.48;4.22;;;;;;;;;;5085547;28;20564;-69
2023/03/23 00:57:29;;;;;;;29.92;4.32;;;;;;;;;;5090273;28;20071;-69
2023/03/23 00:59:54;;;;;;;30.70;4.85;;;;;;;;;;5082393;28;20041;-70
2023/03/23 01:02:24;;;;;;;26.65;4.28;;;;;;;;;;5090475;28;20543;-69
2023/03/23 01:04:51;;;;;;;29.33;4.22;;;;;;;;;;5078905;28;20041;-69
2023/03/23 01:07:17;;;;;;;28.20;3.97;;;;;;;;;;5086142;28;20054;-69
2023/03/23 01:09:44;;;;;;;26.27;5.18;;;;;;;;;;5085186;28;20055;-69
2023/03/23 01:12:10;;;;;;;21.90;3.80;;;;;;;;;;5086025;28;20048;-70
2023/03/23 01:14:35;;;;;;;19.15;3.60;;;;;;;;;;5082935;28;20037;-69
2023/03/23 01:17:00;;;;;;;28.90;4.60;;;;;;;;;;5079244;28;20048;-69
2023/03/23 01:19:26;;;;;;;27.38;4.13;;;;;;;;;;5085440;28;20037;-69
2023/03/23 01:21:51;;;;;;;28.27;4.25;;;;;;;;;;5074883;28;20068;-69
2023/03/23 01:24:16;;;;;;;24.40;3.85;;;;;;;;;;5090734;28;20100;-69
2023/03/23 01:26:42;;;;;;;23.73;4.38;;;;;;;;;;5091495;28;20048;-69
2023/03/23 01:29:07;;;;;;;22.52;4.18;;;;;;;;;;5091516;28;20047;-70
2023/03/23 01:31:33;;;;;;;24.23;4.22;;;;;;;;;;5091200;28;20048;-69
2023/03/23 01:33:58;;;;;;;24.65;4.28;;;;;;;;;;5091203;28;20050;-69
2023/03/23 01:36:28;;;;;;;20.55;3.47;;;;;;;;;;5090961;28;20056;-69
2023/03/23 01:38:54;;;;;;;24.40;4.05;;;;;;;;;;5091486;28;20044;-69
2023/03/23 01:41:20;;;;;;;27.38;4.57;;;;;;;;;;5091154;28;20491;-69
2023/03/23 01:44:05;;;;;;;26.30;3.83;;;;;;;;;;5090060;28;20063;-69
2023/03/23 01:46:32;;;;;;;19.67;3.60;;;;;;;;;;5091089;28;20048;-69
2023/03/23 01:49:01;;;;;;;22.65;3.90;;;;;;;;;;5091292;28;20040;-69
2023/03/23 01:51:26;;;;;;;26.83;4.90;;;;;;;;;;5094834;28;20035;-69
2023/03/23 01:53:56;;;;;;;21.92;4.72;;;;;;;;;;5094925;28;20543;-69
2023/03/23 01:56:26;;;;;;;18.27;3.90;;;;;;;;;;5093451;28;20051;-69
2023/03/23 01:58:52;;;;;;;23.38;4.35;;;;;;;;;;5094427;28;20115;-69
2023/03/23 02:01:18;;;;;;;27.25;4.57;;;;;;;;;;5094745;28;20048;-68
2023/03/23 02:03:45;;;;;;;23.98;4.60;;;;;;;;;;5094464;28;20509;-69
2023/03/23 02:06:11;;;;;;;29.43;4.43;;;;;;;;;;5094524;28;20040;-69
2023/03/23 02:08:36;;;;;;;24.25;3.80;;;;;;;;;;5094374;28;20047;-69
2023/03/23 02:11:01;;;;;;;27.30;5.25;;;;;;;;;;5094211;28;20036;-69
2023/03/23 02:13:27;;;;;;;21.85;3.88;;;;;;;;;;5094335;28;20067;-69
2023/03/23 02:15:53;;;;;;;21.35;3.90;;;;;;;;;;5094458;28;20036;-69
2023/03/23 02:18:25;;;;;;;22.13;3.72;;;;;;;;;;5094468;28;20502;-69
2023/03/23 02:21:09;;;;;;;19.00;4.07;;;;;;;;;;5092948;28;20036;-70
2023/03/23 02:23:37;;;;;;;16.77;3.42;;;;;;;;;;5094034;28;20048;-69
2023/03/23 02:26:11;;;;;;;18.63;4.10;;;;;;;;;;5093921;28;20086;-69
2023/03/23 02:28:36;;;;;;;20.80;4.32;;;;;;;;;;5094012;28;20079;-69
2023/03/23 02:31:11;;;;;;;16.88;2.80;;;;;;;;;;5092653;28;20070;-70
2023/03/23 02:33:44;;;;;;;21.38;4.03;;;;;;;;;;5093967;28;20046;-69
2023/03/23 02:36:17;;;;;;;13.63;3.25;;;;;;;;;;5092289;28;20488;-69
2023/03/23 02:39:05;;;;;;;16.48;3.83;;;;;;;;;;5092549;28;20079;-69
2023/03/23 02:41:32;;;;;;;19.58;3.83;;;;;;;;;;5092709;28;20114;-69
2023/03/23 02:43:57;;;;;;;24.90;3.92;;;;;;;;;;5093965;28;20052;-70
2023/03/23 02:46:23;;;;;;;17.05;3.60;;;;;;;;;;5093622;28;20028;-70
2023/03/23 02:48:51;;;;;;;20.92;3.55;;;;;;;;;;5092321;28;20471;-69
2023/03/23 02:51:17;;;;;;;18.95;3.90;;;;;;;;;;5092144;28;20484;-69
2023/03/23 02:53:43;;;;;;;20.27;3.08;;;;;;;;;;5093509;28;20040;-69
2023/03/23 02:56:10;;;;;;;18.73;3.25;;;;;;;;;;5082862;28;20032;-69
2023/03/23 02:58:36;;;;;;;18.70;3.75;;;;;;;;;;5093661;28;20399;-69
2023/03/23 03:01:20;;;;;;;23.15;3.88;;;;;;;;;;5093468;28;20040;-69
2023/03/23 03:03:45;;;;;;;18.40;3.88;;;;;;;;;;5093306;28;20055;-69
2023/03/23 03:06:18;;;;;;;20.95;3.38;;;;;;;;;;5093215;28;20048;-69
2023/03/23 03:08:52;;;;;;;24.08;4.25;;;;;;;;;;5093209;28;20079;-69
2023/03/23 03:11:18;;;;;;;22.73;4.20;;;;;;;;;;5093133;28;20059;-69
2023/03/23 03:13:50;;;;;;;18.98;3.17;;;;;;;;;;5093025;28;20040;-69
2023/03/23 03:16:19;;;;;;;21.77;3.67;;;;;;;;;;5092135;28;20092;-68
2023/03/23 03:18:47;;;;;;;24.70;4.03;;;;;;;;;;5093204;28;20251;-70
2023/03/23 03:21:14;;;;;;;23.95;3.63;;;;;;;;;;5093083;28;20082;-70
2023/03/23 03:23:41;;;;;;;24.27;4.47;;;;;;;;;;5091679;28;20048;-69
2023/03/23 03:26:09;;;;;;;20.85;3.40;;;;;;;;;;5092747;28;20046;-69
2023/03/23 03:28:35;;;;;;;20.15;3.58;;;;;;;;;;5092906;28;20051;-69
2023/03/23 03:31:02;;;;;;;20.98;3.30;;;;;;;;;;5092626;28;20073;-69
2023/03/23 03:33:30;;;;;;;19.88;2.85;;;;;;;;;;5092878;28;20040;-69
2023/03/23 03:35:56;;;;;;;;;;;;;;;;;;5092844;28;20411;-69
2023/03/23 03:38:21;;;;;;;24.50;3.75;;;;;;;;;;5090528;28;19916;-69
2023/03/23 03:40:46;;;;;;;23.95;4.03;;;;;;;;;;5088239;28;20126;-69
2023/03/23 03:43:12;;;;;;;19.50;3.78;;;;;;;;;;5092541;28;20036;-69
2023/03/23 03:45:37;;;;;;;24.02;4.18;;;;;;;;;;5092519;28;20391;-69
2023/03/23 03:48:03;;;;;;;16.00;3.40;;;;;;;;;;5092637;28;20040;-69
2023/03/23 03:50:28;;;;;;;19.88;3.47;;;;;;;;;;5092694;28;20139;-69
2023/03/23 03:52:55;;;;;;;17.55;3.40;;;;;;;;;;5092370;28;20058;-69
2023/03/23 03:55:20;;;;;;;18.02;3.42;;;;;;;;;;5092454;28;20517;-69
2023/03/23 03:57:46;;;;;;;22.00;4.10;;;;;;;;;;5092482;28;20032;-69
2023/03/23 04:00:14;;;;;;;18.45;3.78;;;;;;;;;;5092340;28;20101;-69
2023/03/23 04:02:47;;;;;;;17.42;3.38;;;;;;;;;;5092476;28;20074;-69
2023/03/23 04:05:13;;;;;;;21.05;3.78;;;;;;;;;;5092239;28;20486;-69
2023/03/23 04:07:39;;;;;;;27.70;4.32;;;;;;;;;;5092387;28;20093;-70
2023/03/23 04:10:07;;;;;;;20.50;3.58;;;;;;;;;;5092362;28;20040;-70
2023/03/23 04:12:34;;;;;;;25.05;3.85;;;;;;;;;;5091544;28;20076;-70
2023/03/23 04:14:59;;;;;;;24.33;4.63;;;;;;;;;;5092234;28;20047;-70
2023/03/23 04:17:27;;;;;;;23.13;4.60;;;;;;;;;;5092115;28;20049;-70
2023/03/23 04:19:56;;;;;;;22.50;4.00;;;;;;;;;;5092188;28;20071;-69
2023/03/23 04:22:24;;;;;;;27.55;3.80;;;;;;;;;;5091889;28;20040;-70
2023/03/23 04:24:51;;;;;;;;;;;;;;;;;;5091243;28;20056;-70
2023/03/23 04:27:16;;;;;;;18.30;3.37;;;;;;;;;;5091871;28;20378;-70
2023/03/23 04:29:42;;;;;;;34.67;4.70;;;;;;;;;;5091813;28;20288;-70
2023/03/23 04:32:07;;;;;;;19.30;4.07;;;;;;;;;;5091664;28;20052;-70
2023/03/23 04:34:35;;;;;;;30.58;4.90;;;;;;;;;;5091818;28;20035;-70
2023/03/23 04:37:00;;;;;;;26.17;4.65;;;;;;;;;;5091549;28;20052;-70
2023/03/23 04:39:28;;;;;;;26.63;3.92;;;;;;;;;;5091798;28;20051;-70
2023/03/23 04:41:54;;;;;;;23.98;4.50;;;;;;;;;;5091664;28;20044;-70
2023/03/23 04:44:21;;;;;;;22.55;4.00;;;;;;;;;;5091796;28;20055;-70
2023/03/23 04:46:49;;;;;;;22.02;3.92;;;;;;;;;;5090450;28;20058;-70
2023/03/23 04:49:15;;;;;;;31.52;4.88;;;;;;;;;;5090229;28;20562;-70
2023/03/23 04:51:40;;;;;;;29.52;5.07;;;;;;;;;;5090261;28;20127;-70
2023/03/23 04:54:05;;;;;;;29.95;4.95;;;;;;;;;;5091832;28;20067;-69
2023/03/23 04:56:30;;;;;;;27.25;4.03;;;;;;;;;;5091883;28;20044;-70
2023/03/23 04:58:56;;;;;;;28.33;3.95;;;;;;;;;;5091619;28;20036;-69
2023/03/23 05:01:21;;;;;;;23.40;4.28;;;;;;;;;;5091632;28;20043;-70
2023/03/23 05:03:47;;;;;;;33.83;4.60;;;;;;;;;;5091466;28;20032;-70
2023/03/23 05:06:13;;;;;;;30.55;4.50;;;;;;;;;;5091488;28;20044;-70
2023/03/23 05:08:38;;;;;;;24.48;4.13;;;;;;;;;;5091705;28;20123;-70
2023/03/23 05:11:05;;;;;;;27.83;5.47;;;;;;;;;;5091350;28;20071;-70
2023/03/23 05:13:31;;;;;;;23.05;4.32;;;;;;;;;;5091523;28;20048;-70
2023/03/23 05:15:56;;;;;;;25.98;4.88;;;;;;;;;;5091355;28;20040;-70
2023/03/23 05:18:21;;;;;;;27.42;4.68;;;;;;;;;;5091390;28;20119;-70
2023/03/23 05:20:48;;;;;;;22.65;4.43;;;;;;;;;;5091301;28;20044;-70
2023/03/23 05:23:14;;;;;;;26.23;4.55;;;;;;;;;;5091349;28;20047;-70
2023/03/23 05:25:40;;;;;;;38.17;5.30;;;;;;;;;;5094389;28;20036;-70
2023/03/23 05:28:08;;;;;;;29.15;4.25;;;;;;;;;;5095393;28;20032;-70
2023/03/23 05:30:34;;;;;;;26.35;4.68;;;;;;;;;;5095129;28;20050;-70
2023/03/23 05:33:00;;;;;;;28.88;4.57;;;;;;;;;;5093628;28;20089;-70
2023/03/23 05:35:25;;;;;;;33.00;5.00;;;;;;;;;;5093720;28;20058;-70
2023/03/23 05:37:53;;;;;;;29.17;5.57;;;;;;;;;;5094900;28;20055;-70
2023/03/23 05:40:18;;;;;;;31.95;5.28;;;;;;;;;;5095055;28;20032;-70
2023/03/23 05:42:45;;;;;;;33.58;4.68;;;;;;;;;;5094916;28;20040;-70
2023/03/23 05:45:10;;;;;;;33.22;5.47;;;;;;;;;;5094880;28;20059;-70
2023/03/23 05:47:36;;;;;;;34.10;6.30;;;;;;;;;;5093450;28;20816;-70
2023/03/23 05:50:02;;;;;;;35.00;6.60;;;;;;;;;;5095065;28;20048;-70
2023/03/23 05:52:27;;;;;;;42.15;6.20;;;;;;;;;;5094797;28;20040;-70
2023/03/23 05:54:53;;;;;;;42.40;6.18;;;;;;;;;;5094754;28;20479;-70
2023/03/23 05:57:21;;;;;;;33.90;5.78;;;;;;;;;;5094546;28;20051;-70
2023/03/23 05:59:46;;;;;;;40.67;7.40;;;;;;;;;;5094718;28;20655;-70
2023/03/23 06:02:13;;;;;;;41.17;6.55;;;;;;;;;;5094746;28;20047;-70
2023/03/23 06:04:40;;;;;;;44.33;5.90;;;;;;;;;;5094746;28;20036;-70
2023/03/23 06:07:06;;;;;;;40.45;6.57;;;;;;;;;;5093191;28;20480;-70
2023/03/23 06:09:31;;;;;;;36.50;6.15;;;;;;;;;;5094480;28;20043;-70
2023/03/23 06:11:57;;;;;;;42.85;5.97;;;;;;;;;;5094191;28;20048;-70
2023/03/23 06:14:22;;;;;;;42.13;7.75;;;;;;;;;;5094279;28;20044;-70
2023/03/23 06:16:48;;;;;;;43.80;7.65;;;;;;;;;;5094239;28;20054;-70
2023/03/23 06:19:14;;;;;;;44.15;6.63;;;;;;;;;;5092869;28;20044;-70
2023/03/23 06:21:39;;;;;;;42.53;6.78;;;;;;;;;;5094162;28;20055;-70
2023/03/23 06:24:05;;;;;;;42.65;7.22;;;;;;;;;;5094097;28;20040;-70
2023/03/23 06:26:32;;;;;;;46.35;7.78;;;;;;;;;;5093992;28;20504;-70
2023/03/23 06:28:57;;;;;;;43.87;7.27;;;;;;;;;;5094016;28;20494;-70
2023/03/23 06:31:23;;;;;;;39.20;6.45;;;;;;;;;;5093504;28;20308;-70
2023/03/23 06:33:48;;;;;;;44.38;7.85;;;;;;;;;;5093883;28;20079;-71
2023/03/23 06:36:14;;;;;;;46.00;6.95;;;;;;;;;;5093202;28;20056;-70
2023/03/23 06:38:39;;;;;;;42.72;7.20;;;;;;;;;;5087024;28;20040;-70
2023/03/23 06:41:04;;;;;;;41.30;7.53;;;;;;;;;;5086061;28;20124;-70
2023/03/23 06:43:30;;;;;;;47.50;7.60;;;;;;;;;;5076873;28;20435;-70
2023/03/23 06:45:58;;;;;;;37.13;7.05;;;;;;;;;;5081256;28;20040;-70
2023/03/23 06:48:23;;;;;;;40.45;7.15;;;;;;;;;;5089935;28;20048;-69
2023/03/23 06:50:49;;;;;;;37.35;6.47;;;;;;;;;;5093433;28;20051;-70
2023/03/23 06:53:16;;;;;;;38.88;7.53;;;;;;;;;;5073063;28;20442;-70
2023/03/23 06:55:42;;;;;;;43.25;7.00;;;;;;;;;;5073580;28;20392;-70
2023/03/23 06:58:08;;;;;;;33.83;6.38;;;;;;;;;;5073148;28;20087;-70
2023/03/23 07:00:33;;;;;;;30.90;5.53;;;;;;;;;;5072039;28;20044;-70
2023/03/23 07:02:58;;;;;;;34.60;5.68;;;;;;;;;;5073017;28;20395;-69
2023/03/23 07:05:24;;;;;;;32.88;6.10;;;;;;;;;;5072842;28;20044;-70
2023/03/23 07:07:49;;;;;;;32.28;5.93;;;;;;;;;;5088205;28;20044;-70
2023/03/23 07:10:15;;;;;;;29.17;5.30;;;;;;;;;;5093467;28;20047;-70
2023/03/23 07:12:41;;;;;;;27.73;5.40;;;;;;;;;;5093275;28;20054;-70
2023/03/23 07:15:10;;;;;;;41.50;6.55;;;;;;;;;;5093144;28;20387;-70
2023/03/23 07:17:35;;;;;;;37.53;7.20;;;;;;;;;;5093369;28;20097;-70
2023/03/23 07:20:00;;;;;;;34.92;6.03;;;;;;;;;;5093181;28;20107;-70
2023/03/23 07:22:26;;;;;;;30.33;5.88;;;;;;;;;;5092960;28;20110;-70
2023/03/23 07:24:51;;;;;;;30.55;6.20;;;;;;;;;;5079060;28;20041;-70
2023/03/23 07:27:16;;;;;;;29.27;5.68;;;;;;;;;;5078842;28;20040;-70
2023/03/23 07:29:42;;;;;;;33.58;5.65;;;;;;;;;;5083604;28;20048;-70
2023/03/23 07:32:10;;;;;;;33.25;5.43;;;;;;;;;;5089669;28;20047;-70
2023/03/23 07:34:37;;;;;;;35.17;5.97;;;;;;;;;;5075227;28;20041;-70
2023/03/23 07:37:02;;;;;;;30.98;5.40;;;;;;;;;;5070919;28;20814;-70
2023/03/23 07:39:27;;;;;;;26.00;5.32;;;;;;;;;;5086176;28;20037;-69
2023/03/23 07:41:53;;;;;;;28.73;5.43;;;;;;;;;;5072264;28;20041;-71
2023/03/23 07:44:18;;;;;;;27.15;4.90;;;;;;;;;;5071872;28;20504;-68
2023/03/23 07:46:43;;;;;;;23.60;4.55;;;;;;;;;;5086923;28;20040;-68
2023/03/23 07:49:10;;;;;;;24.77;4.05;;;;;;;;;;5071202;28;20040;-67
2023/03/23 07:51:38;;;;;;;25.52;4.50;;;;;;;;;;5092517;28;20044;-67
2023/03/23 07:54:04;;;;;;;25.25;4.40;;;;;;;;;;5083980;28;20037;-67
2023/03/23 07:56:29;;;;;;;23.05;4.47;;;;;;;;;;5090938;28;20545;-67
2023/03/23 07:58:55;;;;;;;22.42;4.07;;;;;;;;;;5083593;28;20040;-67
2023/03/23 08:01:20;;;;;;;19.60;3.45;;;;;;;;;;5091598;28;20055;-67
2023/03/23 08:03:46;;;;;;;21.65;4.15;;;;;;;;;;5085005;28;20380;-67
2023/03/23 08:06:12;;;;;;;21.52;4.10;;;;;;;;;;5087325;28;20048;-67
2023/03/23 08:08:37;;;;;;;23.85;4.03;;;;;;;;;;5086056;28;20037;-67
2023/03/23 08:11:03;;;;;;;27.50;4.03;;;;;;;;;;5086973;28;20055;-67
2023/03/23 08:13:29;;;;;;;24.75;4.85;;;;;;;;;;5087534;28;20036;-67
2023/03/23 08:15:54;;;;;;;19.45;4.03;;;;;;;;;;5085159;28;20040;-67
2023/03/23 08:18:19;;;;;;;21.15;3.90;;;;;;;;;;5088022;28;20048;-67
2023/03/23 08:20:45;;;;;;;22.88;4.22;;;;;;;;;;5072570;28;20125;-66
2023/03/23 08:23:10;;;;;;;24.45;4.60;;;;;;;;;;5090569;28;20173;-66
2023/03/23 08:25:36;;;;;;;19.10;4.05;;;;;;;;;;5069541;28;20086;-66
2023/03/23 08:28:01;;;;;;;27.17;5.25;;;;;;;;;;5090737;28;20054;-66
2023/03/23 08:30:29;;;;;;;27.17;4.72;;;;;;;;;;5066207;28;20669;-67
2023/03/23 08:32:55;;;;;;;26.52;5.15;;;;;;;;;;5092028;28;20044;-66
2023/03/23 08:35:21;;;;;;;26.70;4.65;;;;;;;;;;5076860;28;20040;-66
2023/03/23 08:37:50;;;;;;;20.50;4.18;;;;;;;;;;5091649;28;20064;-66
2023/03/23 08:40:19;;;;;;;21.85;4.88;;;;;;;;;;5076579;28;20548;-66
2023/03/23 08:42:45;;;;;;;21.08;4.47;;;;;;;;;;5091708;28;20047;-66
2023/03/23 08:45:11;;;;;;;23.70;4.20;;;;;;;;;;5089295;28;20055;-66
2023/03/23 08:47:37;;;;;;;23.05;4.85;;;;;;;;;;5091838;28;20450;-67
2023/03/23 08:50:04;;;;;;;22.92;4.25;;;;;;;;;;5086012;28;20115;-67
2023/03/23 08:52:30;;;;;;;25.43;4.43;;;;;;;;;;5091843;28;20047;-66
2023/03/23 08:54:56;;;;;;;26.65;4.75;;;;;;;;;;5085020;28;20060;-67
2023/03/23 08:57:22;;;;;;;24.08;5.55;;;;;;;;;;5091466;28;20131;-66
2023/03/23 08:59:48;;;;;;;24.40;4.75;;;;;;;;;;5083078;28;20434;-66
2023/03/23 09:02:13;;;;;;;24.73;4.47;;;;;;;;;;5095742;28;20040;-67
2023/03/23 09:04:39;;;;;;;27.83;5.18;;;;;;;;;;5081948;28;20110;-67
2023/03/23 09:07:04;;;;;;;24.60;5.00;;;;;;;;;;5095709;28;20407;-67
2023/03/23 09:09:30;;;;;;;24.55;5.15;;;;;;;;;;5080198;28;20054;-67
2023/03/23 09:11:55;;;;;;;19.67;4.00;;;;;;;;;;5095350;28;20494;-67
2023/03/23 09:14:21;;;;;;;29.77;5.30;;;;;;;;;;5085390;28;20037;-67
2023/03/23 09:16:46;;;;;;;24.58;5.20;;;;;;;;;;5095576;28;20503;-67
2023/03/23 09:19:12;;;;;;;28.77;5.63;;;;;;;;;;5084803;28;20040;-67
2023/03/23 09:21:37;;;;;;;27.05;5.15;;;;;;;;;;5093837;28;20410;-67
2023/03/23 09:24:04;;;;;;;25.52;5.32;;;;;;;;;;5084517;28;20048;-67
2023/03/23 09:26:30;;;;;;;26.40;5.13;;;;;;;;;;5091731;28;20043;-67
2023/03/23 09:28:56;;;;;;;30.85;5.20;;;;;;;;;;5087062;28;20098;-67
2023/03/23 09:31:22;;;;;;;22.00;4.65;;;;;;;;;;5091148;28;20048;-68
2023/03/23 09:33:51;;;;;;;26.05;5.00;;;;;;;;;;5087904;28;20387;-68
2023/03/23 09:36:17;;;;;;;22.75;5.13;;;;;;;;;;5089310;28;20087;-68
2023/03/23 09:38:45;;;;;;;24.05;5.47;;;;;;;;;;5088532;28;20090;-68
2023/03/23 09:41:52;;;;;;;21.13;4.43;;;;;;;;;;5086451;28;20060;-67
2023/03/23 09:44:32;;;;;;;18.02;4.93;;;;;;;;;;4986028;28;20057;-67
2023/03/23 09:47:03;;;;;;;23.05;5.47;;;;;;;;;;4994460;28;20056;-68
2023/03/23 09:49:43;;;;;;;23.92;4.57;;;;;;;;;;5057635;28;20063;-67
2023/03/23 09:52:13;;;;;;;14.25;3.88;;;;;;;;;;5093323;28;20051;-67
2023/03/23 09:54:40;;;;;;;17.13;4.43;;;;;;;;;;5084696;28;20055;-67
2023/03/23 09:57:12;;;;;;;20.45;4.72;;;;;;;;;;5094646;28;20035;-67
2023/03/23 09:59:37;;;;;;;16.70;4.20;;;;;;;;;;5087873;28;20051;-67
2023/03/23 10:02:11;;;;;;;15.75;4.03;;;;;;;;;;5094198;28;20048;-67
2023/03/23 10:04:47;;;;;;;18.40;4.13;;;;;;;;;;5085942;28;20541;-67
2023/03/23 10:07:15;;;;;;;16.95;3.97;;;;;;;;;;5093175;28;20051;-67
2023/03/23 10:09:42;;;;;;;18.55;4.35;;;;;;;;;;5078266;28;20107;-67
2023/03/23 10:12:17;;;;;;;16.45;3.83;;;;;;;;;;5094338;28;20054;-67
2023/03/23 10:14:43;;;;;;;15.05;3.80;;;;;;;;;;5084339;28;20039;-67
2023/03/23 10:17:08;;;;;;;14.70;3.63;;;;;;;;;;5094337;28;20462;-67
2023/03/23 10:19:37;;;;;;;16.58;3.78;;;;;;;;;;5075567;28;20269;-67
2023/03/23 10:22:04;;;;;;;13.20;3.40;;;;;;;;;;5094114;28;20051;-67
2023/03/23 10:24:36;;;;;;;13.70;3.47;;;;;;;;;;5073833;28;20040;-67
2023/03/23 10:27:24;;;;;;;14.75;3.97;;;;;;;;;;5094096;28;20044;-67
2023/03/23 10:30:03;;;;;;;12.05;3.65;;;;;;;;;;5033543;28;20036;-67
2023/03/23 10:32:49;;;;;;;13.55;3.65;;;;;;;;;;5094166;28;20047;-67
2023/03/23 10:35:18;;;;;;;13.63;3.63;;;;;;;;;;5068296;28;20457;-67
2023/03/23 10:37:47;;;;;;;14.60;3.83;;;;;;;;;;5093781;28;20430;-67
2023/03/23 10:40:18;;;;;;;17.98;3.90;;;;;;;;;;5068255;28;20067;-67
2023/03/23 10:42:43;;;;;;;17.52;4.75;;;;;;;;;;5093907;28;20060;-67
2023/03/23 10:45:18;;;;;;;17.58;4.13;;;;;;;;;;5066235;28;20036;-67
2023/03/23 10:47:45;;;;;;;21.75;4.97;;;;;;;;;;5093612;28;20551;-67
2023/03/23 10:50:15;;;;;;;20.63;4.50;;;;;;;;;;5088193;28;20107;-67
2023/03/23 10:52:41;;;;;;;15.98;4.35;;;;;;;;;;5093440;28;20043;-67
2023/03/23 10:55:17;;;;;;;18.67;4.32;;;;;;;;;;5086928;28;20062;-67
2023/03/23 10:57:44;;;;;;;17.25;4.30;;;;;;;;;;5093714;28;20040;-67
2023/03/23 11:00:21;;;;;;;18.25;4.55;;;;;;;;;;5081459;28;20695;-67
2023/03/23 11:03:06;;;;;;;21.17;5.25;;;;;;;;;;5093377;28;20036;-67
2023/03/23 11:05:42;;;;;;;29.92;5.95;;;;;;;;;;5080353;28;20127;-67
2023/03/23 11:08:14;;;;;;;64.03;8.48;;;;;;;;;;5086311;28;20037;-67
2023/03/23 11:10:42;;;;;;;32.92;6.18;;;;;;;;;;5080393;28;20043;-67
2023/03/23 11:13:14;;;;;;;31.92;6.75;;;;;;;;;;5092043;28;20032;-67
2023/03/23 11:15:41;;;;;;;21.83;6.03;;;;;;;;;;5077506;28;20046;-68
2023/03/23 11:18:09;;;;;;;21.17;5.13;;;;;;;;;;5092343;28;20043;-68
2023/03/23 11:20:41;;;;;;;17.75;5.07;;;;;;;;;;5083936;28;20044;-68
2023/03/23 11:23:18;;;;;;;18.83;5.13;;;;;;;;;;5091993;28;20483;-68
2023/03/23 11:26:03;;;;;;;20.10;5.05;;;;;;;;;;5074872;28;20044;-68
2023/03/23 11:28:31;;;;;;;16.13;3.83;;;;;;;;;;5088262;28;20045;-68
2023/03/23 11:30:57;;;;;;;15.45;4.35;;;;;;;;;;5085254;28;20503;-69
2023/03/23 11:33:24;;;;;;;15.73;3.90;;;;;;;;;;5089001;28;20075;-68
2023/03/23 11:35:49;;;;;;;;;;;;;;;;;;5082350;28;20368;-68
2023/03/23 11:38:19;;;;;;;13.20;4.17;;;;;;;;;;5090356;28;20007;-68
2023/03/23 11:40:50;;;;;;;10.68;3.58;;;;;;;;;;5082207;28;20403;-69
2023/03/23 11:43:19;;;;;;;13.27;3.70;;;;;;;;;;5089916;28;20048;-68
2023/03/23 11:45:50;;;;;;;11.02;3.65;;;;;;;;;;5069147;28;20564;-68
2023/03/23 11:48:18;;;;;;;12.90;3.80;;;;;;;;;;5089818;28;20108;-67
2023/03/23 11:51:01;;;;;;;12.23;3.63;;;;;;;;;;5089872;28;20119;-67
2023/03/23 11:53:45;;;;;;;11.27;3.60;;;;;;;;;;5086655;28;20064;-67
2023/03/23 11:56:25;;;;;;;12.63;3.40;;;;;;;;;;5065018;28;20052;-67
2023/03/23 11:58:51;;;;;;;16.20;4.13;;;;;;;;;;5078945;28;20049;-67
2023/03/23 12:01:17;;;;;;;17.93;4.43;;;;;;;;;;5092371;28;20112;-67
2023/03/23 12:04:00;;;;;;;15.13;3.97;;;;;;;;;;5086095;28;20484;-67
2023/03/23 12:06:44;;;;;;;16.23;3.63;;;;;;;;;;5078912;28;20257;-67
2023/03/23 12:09:10;;;;;;;18.17;4.35;;;;;;;;;;5082012;28;20146;-67
2023/03/23 12:11:45;;;;;;;19.00;4.60;;;;;;;;;;5092417;28;20048;-67
2023/03/23 12:14:32;;;;;;;23.23;4.85;;;;;;;;;;5082249;28;20480;-67
2023/03/23 12:17:16;;;;;;;22.85;5.30;;;;;;;;;;5092123;28;20080;-67
2023/03/23 12:19:50;;;;;;;24.67;5.30;;;;;;;;;;5079900;28;20471;-67
2023/03/23 12:22:40;;;;;;;25.63;6.00;;;;;;;;;;5092115;28;20051;-67
2023/03/23 12:25:05;;;;;;;23.80;5.72;;;;;;;;;;5070202;28;20056;-67
2023/03/23 12:27:49;;;;;;;21.42;5.20;;;;;;;;;;5091805;28;20058;-67
2023/03/23 12:30:21;;;;;;;22.80;5.35;;;;;;;;;;5069883;28;20051;-67
2023/03/23 12:32:52;;;;;;;22.65;5.55;;;;;;;;;;5091394;28;20131;-67
2023/03/23 12:35:17;;;;;;;23.85;5.28;;;;;;;;;;5067805;28;20036;-67
2023/03/23 12:37:53;;;;;;;21.93;5.23;;;;;;;;;;5090410;28;20134;-67
2023/03/23 12:40:37;;;;;;;22.70;5.20;;;;;;;;;;5077415;28;20686;-67
2023/03/23 12:43:08;;;;;;;24.20;5.30;;;;;;;;;;5090627;28;20088;-67
2023/03/23 12:45:40;;;;;;;23.08;5.35;;;;;;;;;;5078313;28;20131;-67
2023/03/23 12:48:11;;;;;;;22.17;5.78;;;;;;;;;;5091183;28;20039;-67
2023/03/23 12:50:46;;;;;;;27.58;6.32;;;;;;;;;;5084641;28;20430;-67
2023/03/23 12:53:11;;;;;;;28.23;6.53;;;;;;;;;;5089619;28;20040;-67
2023/03/23 12:55:44;;;;;;;30.20;6.75;;;;;;;;;;5084833;28;20773;-67
2023/03/23 12:58:12;;;;;;;28.75;6.55;;;;;;;;;;5088279;28;20040;-67
2023/03/23 13:00:57;;;;;;;25.45;5.55;;;;;;;;;;5081697;28;20044;-67
2023/03/23 13:03:27;;;;;;;29.27;6.28;;;;;;;;;;5086567;28;20050;-67
2023/03/23 13:05:55;;;;;;;35.58;7.90;;;;;;;;;;5087833;28;20373;-67
2023/03/23 13:08:37;;;;;;;31.92;6.85;;;;;;;;;;5088136;28;20051;-67
2023/03/23 13:11:05;;;;;;;27.63;6.78;;;;;;;;;;5088495;28;20101;-67
2023/03/23 13:13:43;;;;;;;33.47;6.60;;;;;;;;;;5086881;28;20047;-67
2023/03/23 13:16:14;;;;;;;32.58;7.07;;;;;;;;;;5086763;28;20415;-67
2023/03/23 13:18:42;;;;;;;34.13;7.93;;;;;;;;;;5085520;28;20110;-67
2023/03/23 13:21:25;;;;;;;31.75;6.65;;;;;;;;;;5087157;28;20055;-67
2023/03/23 13:23:55;;;;;;;37.17;7.65;;;;;;;;;;5078914;28;20079;-67
2023/03/23 13:26:22;;;;;;;76.50;10.15;;;;;;;;;;5084978;28;20047;-67
2023/03/23 13:28:53;;;;;;;48.63;8.77;;;;;;;;;;5079817;28;20116;-68
2023/03/23 13:31:29;;;;;;;50.65;9.48;;;;;;;;;;5081286;28;20485;-69
2023/03/23 13:33:58;;;;;;;56.10;9.43;;;;;;;;;;5079084;28;20087;-69
2023/03/23 13:36:44;;;;;;;49.10;10.35;;;;;;;;;;5080883;28;20121;-69
2023/03/23 13:39:26;;;;;;;48.10;9.25;;;;;;;;;;5080155;28;20083;-68
2023/03/23 13:42:07;;;;;;;52.13;9.60;;;;;;;;;;5088339;28;20048;-68
2023/03/23 13:44:55;;;;;;;52.97;8.80;;;;;;;;;;5067146;28;20745;-67
2023/03/23 13:47:21;;;;;;;92.97;11.60;;;;;;;;;;5068627;28;20512;-67
2023/03/23 13:49:52;;;;;;;95.70;11.45;;;;;;;;;;5089502;28;20048;-67
2023/03/23 13:52:22;;;;;;;76.25;11.95;;;;;;;;;;5093290;28;20044;-67
2023/03/23 13:54:50;;;;;;;62.20;9.93;;;;;;;;;;5087133;28;20048;-67
2023/03/23 13:57:39;;;;;;;67.68;10.70;;;;;;;;;;5093236;28;20048;-67
2023/03/23 14:00:31;;;;;;;67.82;10.23;;;;;;;;;;5076806;28;20150;-67
2023/03/23 14:03:00;;;;;;;64.65;10.38;;;;;;;;;;5056084;28;20056;-67
2023/03/23 14:05:30;;;;;;;55.47;8.38;;;;;;;;;;5086234;28;20521;-67
2023/03/23 14:08:00;;;;;;;68.38;9.50;;;;;;;;;;5093094;28;20048;-68
2023/03/23 14:10:32;;;;;;;43.90;7.53;;;;;;;;;;5084331;28;20055;-67
2023/03/23 14:12:59;;;;;;;45.28;7.25;;;;;;;;;;5093004;28;20048;-66
2023/03/23 14:15:27;;;;;;;52.40;7.88;;;;;;;;;;5083178;28;20097;-67
2023/03/23 14:17:53;;;;;;;51.38;7.47;;;;;;;;;;5093115;28;20048;-66
2023/03/23 14:20:25;;;;;;;54.95;8.23;;;;;;;;;;5082494;28;20495;-67
2023/03/23 14:22:53;;;;;;;48.60;7.55;;;;;;;;;;5092765;28;20492;-67
2023/03/23 14:25:20;;;;;;;57.92;8.15;;;;;;;;;;5064581;28;20543;-66
2023/03/23 14:27:46;;;;;;;59.08;8.50;;;;;;;;;;5079760;28;20056;-67
2023/03/23 14:30:16;;;;;;;50.60;8.60;;;;;;;;;;5072265;28;20093;-66
2023/03/23 14:32:42;;;;;;;48.60;8.05;;;;;;;;;;5075698;28;20507;-67
2023/03/23 14:35:12;;;;;;;42.67;7.65;;;;;;;;;;5080873;28;20036;-67
2023/03/23 14:37:37;;;;;;;55.33;9.27;;;;;;;;;;5092527;28;20052;-68
2023/03/23 14:40:06;;;;;;;40.05;7.63;;;;;;;;;;5079161;28;20440;-68